sensor_id;sensor_type;location;lat;lon;timestamp;pressure;altitude;pressure_sealevel;temperature;humidity
2711;BME280;20721;47.402;8.550;2022-07-15T00:00:43;96313;;;24.61;41.63
2711;BME280;20721;47.402;8.550;2022-07-15T00:01:43;96315;;;24.63;41.73
2711;BME280;20721;47.402;8.550;2022-07-15T00:02:43;96319;;;24.61;41.82
2711;BME280;20721;47.402;8.550;2022-07-15T00:03:43;96322;;;24.63;41.75
2711;BME280;20721;47.402;8.550;2022-07-15T00:04:43;96320;;;24.65;41.71
2711;BME280;20721;47.402;8.550;2022-07-15T00:06:43;96320;;;24.67;41.44
2711;BME280;20721;47.402;8.550;2022-07-15T00:07:43;96324;;;24.69;41.42
2711;BME280;20721;47.402;8.550;2022-07-15T00:08:43;96319;;;24.60;41.25
2711;BME280;20721;47.402;8.550;2022-07-15T00:09:53;96316;;;24.48;41.24
2711;BME280;20721;47.402;8.550;2022-07-15T00:10:43;96320;;;24.43;41.27
2711;BME280;20721;47.402;8.550;2022-07-15T00:11:43;96318;;;24.40;41.53
2711;BME280;20721;47.402;8.550;2022-07-15T00:12:44;96317;;;24.33;41.29
2711;BME280;20721;47.402;8.550;2022-07-15T00:13:43;96316;;;24.28;41.20
2711;BME280;20721;47.402;8.550;2022-07-15T00:14:44;96308;;;24.13;41.12
2711;BME280;20721;47.402;8.550;2022-07-15T00:15:43;96309;;;24.05;41.35
2711;BME280;20721;47.402;8.550;2022-07-15T00:16:43;96308;;;23.99;41.71
2711;BME280;20721;47.402;8.550;2022-07-15T00:17:43;96314;;;24.02;41.69
2711;BME280;20721;47.402;8.550;2022-07-15T00:18:43;96307;;;23.96;41.59
2711;BME280;20721;47.402;8.550;2022-07-15T00:19:43;96314;;;23.93;41.50
2711;BME280;20721;47.402;8.550;2022-07-15T00:20:43;96312;;;23.85;41.50
2711;BME280;20721;47.402;8.550;2022-07-15T00:21:43;96311;;;23.84;41.56
2711;BME280;20721;47.402;8.550;2022-07-15T00:22:44;96311;;;23.72;41.71
2711;BME280;20721;47.402;8.550;2022-07-15T00:23:43;96311;;;23.75;41.64
2711;BME280;20721;47.402;8.550;2022-07-15T00:24:43;96315;;;23.71;41.68
2711;BME280;20721;47.402;8.550;2022-07-15T00:25:43;96318;;;23.75;41.60
2711;BME280;20721;47.402;8.550;2022-07-15T00:26:43;96319;;;23.79;41.44
2711;BME280;20721;47.402;8.550;2022-07-15T00:27:52;96318;;;23.80;41.44
2711;BME280;20721;47.402;8.550;2022-07-15T00:29:43;96316;;;23.81;40.99
2711;BME280;20721;47.402;8.550;2022-07-15T00:30:43;96318;;;23.75;40.91
2711;BME280;20721;47.402;8.550;2022-07-15T00:31:43;96314;;;23.64;40.80
2711;BME280;20721;47.402;8.550;2022-07-15T00:32:43;96315;;;23.59;40.83
2711;BME280;20721;47.402;8.550;2022-07-15T00:33:43;96311;;;23.56;40.80
2711;BME280;20721;47.402;8.550;2022-07-15T00:34:43;96314;;;23.54;40.84
2711;BME280;20721;47.402;8.550;2022-07-15T00:35:43;96311;;;23.53;40.96
2711;BME280;20721;47.402;8.550;2022-07-15T00:36:44;96308;;;23.56;40.92
2711;BME280;20721;47.402;8.550;2022-07-15T00:37:43;96311;;;23.63;40.79
2711;BME280;20721;47.402;8.550;2022-07-15T00:38:43;96308;;;23.62;40.80
2711;BME280;20721;47.402;8.550;2022-07-15T00:40:44;96314;;;23.63;40.75
2711;BME280;20721;47.402;8.550;2022-07-15T00:41:43;96316;;;23.64;40.70
2711;BME280;20721;47.402;8.550;2022-07-15T00:42:44;96317;;;23.69;40.70
2711;BME280;20721;47.402;8.550;2022-07-15T00:43:43;96316;;;23.74;40.60
2711;BME280;20721;47.402;8.550;2022-07-15T00:44:43;96315;;;23.78;40.42
2711;BME280;20721;47.402;8.550;2022-07-15T00:45:43;96317;;;23.75;40.28
2711;BME280;20721;47.402;8.550;2022-07-15T00:46:43;96316;;;23.76;40.35
2711;BME280;20721;47.402;8.550;2022-07-15T00:47:44;96316;;;23.75;40.23
2711;BME280;20721;47.402;8.550;2022-07-15T00:48:43;96315;;;23.65;40.15
2711;BME280;20721;47.402;8.550;2022-07-15T00:49:43;96318;;;23.62;40.37
2711;BME280;20721;47.402;8.550;2022-07-15T00:50:43;96314;;;23.59;40.45
2711;BME280;20721;47.402;8.550;2022-07-15T00:51:44;96318;;;23.64;40.43
2711;BME280;20721;47.402;8.550;2022-07-15T00:52:45;96314;;;23.66;40.37
2711;BME280;20721;47.402;8.550;2022-07-15T00:53:43;96312;;;23.68;40.39
2711;BME280;20721;47.402;8.550;2022-07-15T00:54:43;96314;;;23.65;40.40
2711;BME280;20721;47.402;8.550;2022-07-15T00:55:44;96311;;;23.61;40.41
2711;BME280;20721;47.402;8.550;2022-07-15T00:56:47;96309;;;23.60;40.43
2711;BME280;20721;47.402;8.550;2022-07-15T00:57:44;96310;;;23.61;40.49
2711;BME280;20721;47.402;8.550;2022-07-15T00:59:43;96309;;;23.51;40.54
2711;BME280;20721;47.402;8.550;2022-07-15T01:00:44;96311;;;23.55;40.47
2711;BME280;20721;47.402;8.550;2022-07-15T01:01:44;96309;;;23.52;40.51
2711;BME280;20721;47.402;8.550;2022-07-15T01:02:50;96310;;;23.54;40.38
2711;BME280;20721;47.402;8.550;2022-07-15T01:03:43;96314;;;23.50;40.32
2711;BME280;20721;47.402;8.550;2022-07-15T01:04:43;96311;;;23.47;40.37
2711;BME280;20721;47.402;8.550;2022-07-15T01:05:44;96313;;;23.45;40.38
2711;BME280;20721;47.402;8.550;2022-07-15T01:06:43;96313;;;23.39;40.42
2711;BME280;20721;47.402;8.550;2022-07-15T01:07:43;96311;;;23.31;40.50
2711;BME280;20721;47.402;8.550;2022-07-15T01:08:43;96316;;;23.25;40.68
2711;BME280;20721;47.402;8.550;2022-07-15T01:09:43;96310;;;23.20;40.71
2711;BME280;20721;47.402;8.550;2022-07-15T01:10:43;96310;;;23.18;40.81
2711;BME280;20721;47.402;8.550;2022-07-15T01:11:43;96318;;;23.13;40.70
2711;BME280;20721;47.402;8.550;2022-07-15T01:12:43;96316;;;23.07;40.91
2711;BME280;20721;47.402;8.550;2022-07-15T01:13:43;96312;;;22.98;40.96
2711;BME280;20721;47.402;8.550;2022-07-15T01:15:43;96315;;;23.00;40.95
2711;BME280;20721;47.402;8.550;2022-07-15T01:16:43;96319;;;23.04;40.95
2711;BME280;20721;47.402;8.550;2022-07-15T01:17:44;96317;;;23.06;40.89
2711;BME280;20721;47.402;8.550;2022-07-15T01:18:43;96320;;;23.11;40.94
2711;BME280;20721;47.402;8.550;2022-07-15T01:19:43;96321;;;23.17;40.80
2711;BME280;20721;47.402;8.550;2022-07-15T01:20:44;96320;;;23.20;40.74
2711;BME280;20721;47.402;8.550;2022-07-15T01:21:43;96322;;;23.25;40.67
2711;BME280;20721;47.402;8.550;2022-07-15T01:22:43;96323;;;23.30;40.55
2711;BME280;20721;47.402;8.550;2022-07-15T01:23:43;96319;;;23.35;40.47
2711;BME280;20721;47.402;8.550;2022-07-15T01:24:43;96318;;;23.37;40.42
2711;BME280;20721;47.402;8.550;2022-07-15T01:25:44;96317;;;23.38;40.34
2711;BME280;20721;47.402;8.550;2022-07-15T01:26:43;96321;;;23.41;40.30
2711;BME280;20721;47.402;8.550;2022-07-15T01:27:43;96316;;;23.44;40.30
2711;BME280;20721;47.402;8.550;2022-07-15T01:28:43;96322;;;23.41;40.30
2711;BME280;20721;47.402;8.550;2022-07-15T01:29:43;96320;;;23.42;40.29
2711;BME280;20721;47.402;8.550;2022-07-15T01:30:43;96318;;;23.41;40.16
2711;BME280;20721;47.402;8.550;2022-07-15T01:31:43;96321;;;23.40;40.11
2711;BME280;20721;47.402;8.550;2022-07-15T01:33:43;96320;;;23.41;40.13
2711;BME280;20721;47.402;8.550;2022-07-15T01:34:43;96321;;;23.40;40.20
2711;BME280;20721;47.402;8.550;2022-07-15T01:35:43;96319;;;23.35;40.18
2711;BME280;20721;47.402;8.550;2022-07-15T01:36:43;96318;;;23.33;40.25
2711;BME280;20721;47.402;8.550;2022-07-15T01:38:50;96317;;;23.31;40.38
2711;BME280;20721;47.402;8.550;2022-07-15T01:39:43;96315;;;23.28;40.40
2711;BME280;20721;47.402;8.550;2022-07-15T01:40:43;96317;;;23.29;40.43
2711;BME280;20721;47.402;8.550;2022-07-15T01:41:43;96317;;;23.32;40.45
2711;BME280;20721;47.402;8.550;2022-07-15T01:42:44;96317;;;23.21;40.54
2711;BME280;20721;47.402;8.550;2022-07-15T01:43:43;96314;;;23.10;40.61
2711;BME280;20721;47.402;8.550;2022-07-15T01:44:43;96312;;;23.07;40.73
2711;BME280;20721;47.402;8.550;2022-07-15T01:45:44;96309;;;22.96;41.00
2711;BME280;20721;47.402;8.550;2022-07-15T01:46:43;96306;;;22.91;41.05
2711;BME280;20721;47.402;8.550;2022-07-15T01:47:44;96308;;;22.90;41.08
2711;BME280;20721;47.402;8.550;2022-07-15T01:48:53;96310;;;22.88;41.10
2711;BME280;20721;47.402;8.550;2022-07-15T01:49:43;96310;;;22.82;41.09
2711;BME280;20721;47.402;8.550;2022-07-15T01:50:43;96310;;;22.79;41.18
2711;BME280;20721;47.402;8.550;2022-07-15T01:51:43;96313;;;22.83;41.22
2711;BME280;20721;47.402;8.550;2022-07-15T01:52:43;96315;;;22.85;41.15
2711;BME280;20721;47.402;8.550;2022-07-15T01:53:43;96320;;;22.86;41.18
2711;BME280;20721;47.402;8.550;2022-07-15T01:54:43;96320;;;22.88;41.12
2711;BME280;20721;47.402;8.550;2022-07-15T01:55:43;96317;;;22.92;41.12
2711;BME280;20721;47.402;8.550;2022-07-15T01:56:43;96320;;;22.90;41.15
2711;BME280;20721;47.402;8.550;2022-07-15T01:57:44;96321;;;22.95;41.11
2711;BME280;20721;47.402;8.550;2022-07-15T01:58:43;96318;;;22.97;41.00
2711;BME280;20721;47.402;8.550;2022-07-15T01:59:43;96321;;;23.00;40.98
2711;BME280;20721;47.402;8.550;2022-07-15T02:00:44;96319;;;22.98;40.95
2711;BME280;20721;47.402;8.550;2022-07-15T02:01:44;96316;;;22.97;40.98
2711;BME280;20721;47.402;8.550;2022-07-15T02:02:44;96320;;;22.98;41.12
2711;BME280;20721;47.402;8.550;2022-07-15T02:03:44;96320;;;22.97;40.95
2711;BME280;20721;47.402;8.550;2022-07-15T02:04:43;96319;;;22.95;40.91
2711;BME280;20721;47.402;8.550;2022-07-15T02:05:43;96317;;;22.96;40.82
2711;BME280;20721;47.402;8.550;2022-07-15T02:06:43;96318;;;22.97;40.88
2711;BME280;20721;47.402;8.550;2022-07-15T02:07:43;96316;;;22.96;40.77
2711;BME280;20721;47.402;8.550;2022-07-15T02:08:43;96315;;;22.91;40.88
2711;BME280;20721;47.402;8.550;2022-07-15T02:09:43;96314;;;22.92;40.86
2711;BME280;20721;47.402;8.550;2022-07-15T02:10:43;96315;;;22.88;41.00
2711;BME280;20721;47.402;8.550;2022-07-15T02:11:43;96318;;;22.87;40.96
2711;BME280;20721;47.402;8.550;2022-07-15T02:12:43;96314;;;22.89;41.01
2711;BME280;20721;47.402;8.550;2022-07-15T02:13:43;96316;;;22.93;40.99
2711;BME280;20721;47.402;8.550;2022-07-15T02:14:43;96317;;;22.95;40.97
2711;BME280;20721;47.402;8.550;2022-07-15T02:16:43;96310;;;22.91;40.83
2711;BME280;20721;47.402;8.550;2022-07-15T02:17:43;96310;;;22.82;40.92
2711;BME280;20721;47.402;8.550;2022-07-15T02:18:43;96310;;;22.83;41.01
2711;BME280;20721;47.402;8.550;2022-07-15T02:19:43;96311;;;22.74;41.09
2711;BME280;20721;47.402;8.550;2022-07-15T02:20:43;96306;;;22.70;41.24
2711;BME280;20721;47.402;8.550;2022-07-15T02:21:43;96304;;;22.64;41.40
2711;BME280;20721;47.402;8.550;2022-07-15T02:22:43;96307;;;22.54;41.58
2711;BME280;20721;47.402;8.550;2022-07-15T02:23:43;96309;;;22.48;41.70
2711;BME280;20721;47.402;8.550;2022-07-15T02:24:43;96310;;;22.46;41.77
2711;BME280;20721;47.402;8.550;2022-07-15T02:26:45;96307;;;22.41;41.91
2711;BME280;20721;47.402;8.550;2022-07-15T02:27:43;96306;;;22.36;41.93
2711;BME280;20721;47.402;8.550;2022-07-15T02:28:43;96309;;;22.31;41.99
2711;BME280;20721;47.402;8.550;2022-07-15T02:29:43;96312;;;22.33;42.06
2711;BME280;20721;47.402;8.550;2022-07-15T02:30:43;96310;;;22.27;42.05
2711;BME280;20721;47.402;8.550;2022-07-15T02:31:43;96306;;;22.29;42.12
2711;BME280;20721;47.402;8.550;2022-07-15T02:32:43;96312;;;22.24;42.16
2711;BME280;20721;47.402;8.550;2022-07-15T02:33:43;96306;;;22.22;42.17
2711;BME280;20721;47.402;8.550;2022-07-15T02:34:43;96310;;;22.25;42.22
2711;BME280;20721;47.402;8.550;2022-07-15T02:35:43;96310;;;22.26;42.04
2711;BME280;20721;47.402;8.550;2022-07-15T02:37:44;96308;;;22.25;42.05
2711;BME280;20721;47.402;8.550;2022-07-15T02:38:43;96310;;;22.19;42.14
2711;BME280;20721;47.402;8.550;2022-07-15T02:39:43;96310;;;22.20;42.04
2711;BME280;20721;47.402;8.550;2022-07-15T02:40:45;96308;;;22.19;42.14
2711;BME280;20721;47.402;8.550;2022-07-15T02:41:43;96309;;;22.22;42.15
2711;BME280;20721;47.402;8.550;2022-07-15T02:42:51;96308;;;22.20;42.08
2711;BME280;20721;47.402;8.550;2022-07-15T02:43:44;96306;;;22.23;42.16
2711;BME280;20721;47.402;8.550;2022-07-15T02:44:43;96306;;;22.30;42.09
2711;BME280;20721;47.402;8.550;2022-07-15T02:45:44;96305;;;22.32;42.00
2711;BME280;20721;47.402;8.550;2022-07-15T02:46:43;96305;;;22.37;41.92
2711;BME280;20721;47.402;8.550;2022-07-15T02:47:43;96301;;;22.34;41.88
2711;BME280;20721;47.402;8.550;2022-07-15T02:48:43;96301;;;22.32;41.93
2711;BME280;20721;47.402;8.550;2022-07-15T02:50:44;96302;;;22.31;41.97
2711;BME280;20721;47.402;8.550;2022-07-15T02:51:43;96306;;;22.30;41.94
2711;BME280;20721;47.402;8.550;2022-07-15T02:52:43;96309;;;22.29;42.02
2711;BME280;20721;47.402;8.550;2022-07-15T02:53:43;96310;;;22.32;42.01
2711;BME280;20721;47.402;8.550;2022-07-15T02:55:44;96307;;;22.33;41.96
2711;BME280;20721;47.402;8.550;2022-07-15T02:56:43;96310;;;22.30;42.01
2711;BME280;20721;47.402;8.550;2022-07-15T02:57:43;96312;;;22.32;42.08
2711;BME280;20721;47.402;8.550;2022-07-15T02:58:43;96315;;;22.30;42.15
2711;BME280;20721;47.402;8.550;2022-07-15T02:59:43;96315;;;22.25;42.16
2711;BME280;20721;47.402;8.550;2022-07-15T03:00:44;96318;;;22.24;42.16
2711;BME280;20721;47.402;8.550;2022-07-15T03:01:43;96323;;;22.25;42.22
2711;BME280;20721;47.402;8.550;2022-07-15T03:02:43;96320;;;22.26;42.15
2711;BME280;20721;47.402;8.550;2022-07-15T03:03:43;96316;;;22.30;42.21
2711;BME280;20721;47.402;8.550;2022-07-15T03:04:44;96316;;;22.34;42.15
2711;BME280;20721;47.402;8.550;2022-07-15T03:05:43;96320;;;22.29;42.13
2711;BME280;20721;47.402;8.550;2022-07-15T03:06:43;96318;;;22.27;42.08
2711;BME280;20721;47.402;8.550;2022-07-15T03:07:44;96320;;;22.24;42.25
2711;BME280;20721;47.402;8.550;2022-07-15T03:08:43;96317;;;22.26;42.17
2711;BME280;20721;47.402;8.550;2022-07-15T03:09:43;96321;;;22.29;42.25
2711;BME280;20721;47.402;8.550;2022-07-15T03:10:43;96319;;;22.25;42.21
2711;BME280;20721;47.402;8.550;2022-07-15T03:11:43;96319;;;22.22;42.23
2711;BME280;20721;47.402;8.550;2022-07-15T03:12:43;96319;;;22.19;42.31
2711;BME280;20721;47.402;8.550;2022-07-15T03:13:43;96320;;;22.18;42.38
2711;BME280;20721;47.402;8.550;2022-07-15T03:14:43;96315;;;22.09;42.41
2711;BME280;20721;47.402;8.550;2022-07-15T03:15:44;96316;;;22.10;42.53
2711;BME280;20721;47.402;8.550;2022-07-15T03:17:43;96318;;;22.01;42.55
2711;BME280;20721;47.402;8.550;2022-07-15T03:18:44;96317;;;21.95;42.54
2711;BME280;20721;47.402;8.550;2022-07-15T03:19:43;96317;;;21.94;42.63
2711;BME280;20721;47.402;8.550;2022-07-15T03:20:48;96316;;;21.96;42.62
2711;BME280;20721;47.402;8.550;2022-07-15T03:21:43;96316;;;21.94;42.39
2711;BME280;20721;47.402;8.550;2022-07-15T03:23:43;96317;;;21.97;42.49
2711;BME280;20721;47.402;8.550;2022-07-15T03:24:43;96320;;;21.94;42.37
2711;BME280;20721;47.402;8.550;2022-07-15T03:25:44;96321;;;21.95;42.30
2711;BME280;20721;47.402;8.550;2022-07-15T03:26:43;96323;;;21.99;42.33
2711;BME280;20721;47.402;8.550;2022-07-15T03:27:43;96324;;;21.92;42.29
2711;BME280;20721;47.402;8.550;2022-07-15T03:28:44;96321;;;21.93;42.37
2711;BME280;20721;47.402;8.550;2022-07-15T03:29:44;96322;;;21.91;42.28
2711;BME280;20721;47.402;8.550;2022-07-15T03:30:43;96315;;;21.88;42.44
2711;BME280;20721;47.402;8.550;2022-07-15T03:31:44;96317;;;21.82;42.50
2711;BME280;20721;47.402;8.550;2022-07-15T03:32:44;96321;;;21.72;42.69
2711;BME280;20721;47.402;8.550;2022-07-15T03:33:48;96321;;;21.75;42.66
2711;BME280;20721;47.402;8.550;2022-07-15T03:34:44;96324;;;21.76;42.66
2711;BME280;20721;47.402;8.550;2022-07-15T03:35:44;96325;;;21.71;42.69
2711;BME280;20721;47.402;8.550;2022-07-15T03:36:43;96329;;;21.68;42.74
2711;BME280;20721;47.402;8.550;2022-07-15T03:37:43;96332;;;21.70;42.76
2711;BME280;20721;47.402;8.550;2022-07-15T03:39:44;96336;;;21.69;42.98
2711;BME280;20721;47.402;8.550;2022-07-15T03:40:43;96339;;;21.76;42.75
2711;BME280;20721;47.402;8.550;2022-07-15T03:41:44;96336;;;21.79;42.73
2711;BME280;20721;47.402;8.550;2022-07-15T03:42:44;96337;;;21.80;42.59
2711;BME280;20721;47.402;8.550;2022-07-15T03:43:44;96338;;;21.82;42.56
2711;BME280;20721;47.402;8.550;2022-07-15T03:44:44;96338;;;21.85;42.48
2711;BME280;20721;47.402;8.550;2022-07-15T03:45:44;96335;;;21.89;42.43
2711;BME280;20721;47.402;8.550;2022-07-15T03:46:45;96338;;;21.91;42.27
2711;BME280;20721;47.402;8.550;2022-07-15T03:47:44;96332;;;21.88;42.37
2711;BME280;20721;47.402;8.550;2022-07-15T03:48:44;96337;;;21.80;42.53
2711;BME280;20721;47.402;8.550;2022-07-15T03:49:44;96334;;;21.74;42.49
2711;BME280;20721;47.402;8.550;2022-07-15T03:50:44;96333;;;21.76;42.56
2711;BME280;20721;47.402;8.550;2022-07-15T03:51:44;96336;;;21.77;42.61
2711;BME280;20721;47.402;8.550;2022-07-15T03:52:44;96334;;;21.73;42.67
2711;BME280;20721;47.402;8.550;2022-07-15T03:53:44;96335;;;21.71;42.58
2711;BME280;20721;47.402;8.550;2022-07-15T03:54:44;96335;;;21.72;42.61
2711;BME280;20721;47.402;8.550;2022-07-15T03:55:44;96338;;;21.73;42.58
2711;BME280;20721;47.402;8.550;2022-07-15T03:57:43;96345;;;21.76;42.69
2711;BME280;20721;47.402;8.550;2022-07-15T03:58:44;96339;;;21.75;42.62
2711;BME280;20721;47.402;8.550;2022-07-15T03:59:44;96342;;;21.70;42.71
2711;BME280;20721;47.402;8.550;2022-07-15T04:00:44;96344;;;21.67;42.76
2711;BME280;20721;47.402;8.550;2022-07-15T04:01:44;96337;;;21.55;42.92
2711;BME280;20721;47.402;8.550;2022-07-15T04:02:48;96337;;;21.51;43.15
2711;BME280;20721;47.402;8.550;2022-07-15T04:03:44;96338;;;21.52;43.13
2711;BME280;20721;47.402;8.550;2022-07-15T04:04:44;96336;;;21.54;43.05
2711;BME280;20721;47.402;8.550;2022-07-15T04:05:44;96332;;;21.60;43.10
2711;BME280;20721;47.402;8.550;2022-07-15T04:06:44;96337;;;21.58;43.02
2711;BME280;20721;47.402;8.550;2022-07-15T04:07:44;96337;;;21.60;43.06
2711;BME280;20721;47.402;8.550;2022-07-15T04:08:44;96343;;;21.62;43.12
2711;BME280;20721;47.402;8.550;2022-07-15T04:10:44;96342;;;21.60;43.09
2711;BME280;20721;47.402;8.550;2022-07-15T04:11:44;96345;;;21.57;43.09
2711;BME280;20721;47.402;8.550;2022-07-15T04:12:45;96342;;;21.53;43.16
2711;BME280;20721;47.402;8.550;2022-07-15T04:15:44;96342;;;21.50;43.21
2711;BME280;20721;47.402;8.550;2022-07-15T04:16:44;96341;;;21.44;43.37
2711;BME280;20721;47.402;8.550;2022-07-15T04:17:44;96343;;;21.40;43.57
2711;BME280;20721;47.402;8.550;2022-07-15T04:19:44;96341;;;21.45;43.53
2711;BME280;20721;47.402;8.550;2022-07-15T04:20:44;96344;;;21.51;43.45
2711;BME280;20721;47.402;8.550;2022-07-15T04:21:44;96345;;;21.57;43.36
2711;BME280;20721;47.402;8.550;2022-07-15T04:22:44;96346;;;21.66;43.28
2711;BME280;20721;47.402;8.550;2022-07-15T04:23:44;96347;;;21.72;42.97
2711;BME280;20721;47.402;8.550;2022-07-15T04:24:44;96348;;;21.79;42.84
2711;BME280;20721;47.402;8.550;2022-07-15T04:25:44;96350;;;21.84;42.83
2711;BME280;20721;47.402;8.550;2022-07-15T04:26:44;96352;;;21.87;42.70
2711;BME280;20721;47.402;8.550;2022-07-15T04:28:44;96348;;;21.91;42.45
2711;BME280;20721;47.402;8.550;2022-07-15T04:29:44;96348;;;21.95;42.34
2711;BME280;20721;47.402;8.550;2022-07-15T04:30:44;96350;;;21.97;42.09
2711;BME280;20721;47.402;8.550;2022-07-15T04:31:44;96348;;;21.95;41.91
2711;BME280;20721;47.402;8.550;2022-07-15T04:32:44;96347;;;21.96;41.84
2711;BME280;20721;47.402;8.550;2022-07-15T04:34:44;96347;;;21.97;41.83
2711;BME280;20721;47.402;8.550;2022-07-15T04:35:44;96348;;;22.00;41.87
2711;BME280;20721;47.402;8.550;2022-07-15T04:36:44;96347;;;22.03;41.85
2711;BME280;20721;47.402;8.550;2022-07-15T04:37:44;96347;;;21.99;41.67
2711;BME280;20721;47.402;8.550;2022-07-15T04:38:44;96348;;;21.92;41.84
2711;BME280;20721;47.402;8.550;2022-07-15T04:39:44;96349;;;21.84;41.83
2711;BME280;20721;47.402;8.550;2022-07-15T04:40:45;96348;;;21.83;41.80
2711;BME280;20721;47.402;8.550;2022-07-15T04:41:44;96345;;;21.85;41.73
2711;BME280;20721;47.402;8.550;2022-07-15T04:42:44;96349;;;21.87;41.71
2711;BME280;20721;47.402;8.550;2022-07-15T04:43:44;96344;;;21.83;41.78
2711;BME280;20721;47.402;8.550;2022-07-15T04:45:44;96347;;;21.86;41.77
2711;BME280;20721;47.402;8.550;2022-07-15T04:46:44;96345;;;21.92;41.79
2711;BME280;20721;47.402;8.550;2022-07-15T04:47:44;96347;;;21.88;41.65
2711;BME280;20721;47.402;8.550;2022-07-15T04:48:54;96348;;;21.80;41.76
2711;BME280;20721;47.402;8.550;2022-07-15T04:49:54;96347;;;21.77;42.00
2711;BME280;20721;47.402;8.550;2022-07-15T04:50:49;96346;;;21.76;42.19
2711;BME280;20721;47.402;8.550;2022-07-15T04:51:44;96347;;;21.79;42.20
2711;BME280;20721;47.402;8.550;2022-07-15T04:52:44;96345;;;21.81;41.95
2711;BME280;20721;47.402;8.550;2022-07-15T04:54:44;96344;;;21.75;41.98
2711;BME280;20721;47.402;8.550;2022-07-15T04:56:44;96343;;;21.64;42.20
2711;BME280;20721;47.402;8.550;2022-07-15T04:57:44;96345;;;21.65;42.28
2711;BME280;20721;47.402;8.550;2022-07-15T04:58:44;96342;;;21.60;42.35
2711;BME280;20721;47.402;8.550;2022-07-15T04:59:44;96342;;;21.66;42.45
2711;BME280;20721;47.402;8.550;2022-07-15T05:00:44;96344;;;21.70;42.29
2711;BME280;20721;47.402;8.550;2022-07-15T05:02:44;96344;;;21.76;42.23
2711;BME280;20721;47.402;8.550;2022-07-15T05:03:44;96345;;;21.78;42.06
2711;BME280;20721;47.402;8.550;2022-07-15T05:04:44;96342;;;21.80;42.21
2711;BME280;20721;47.402;8.550;2022-07-15T05:05:44;96344;;;21.78;42.12
2711;BME280;20721;47.402;8.550;2022-07-15T05:06:44;96344;;;21.79;42.11
2711;BME280;20721;47.402;8.550;2022-07-15T05:07:44;96345;;;21.85;42.23
2711;BME280;20721;47.402;8.550;2022-07-15T05:08:44;96348;;;21.90;42.08
2711;BME280;20721;47.402;8.550;2022-07-15T05:09:44;96344;;;21.94;41.99
2711;BME280;20721;47.402;8.550;2022-07-15T05:10:44;96345;;;22.05;41.92
2711;BME280;20721;47.402;8.550;2022-07-15T05:11:44;96344;;;22.12;41.80
2711;BME280;20721;47.402;8.550;2022-07-15T05:12:44;96348;;;22.19;41.62
2711;BME280;20721;47.402;8.550;2022-07-15T05:13:44;96346;;;22.23;41.58
2711;BME280;20721;47.402;8.550;2022-07-15T05:14:44;96349;;;22.28;41.69
2711;BME280;20721;47.402;8.550;2022-07-15T05:15:44;96350;;;22.33;41.43
2711;BME280;20721;47.402;8.550;2022-07-15T05:16:44;96351;;;22.39;41.29
2711;BME280;20721;47.402;8.550;2022-07-15T05:17:44;96350;;;22.47;41.27
2711;BME280;20721;47.402;8.550;2022-07-15T05:18:48;96353;;;22.55;41.16
2711;BME280;20721;47.402;8.550;2022-07-15T05:19:44;96352;;;22.61;41.03
2711;BME280;20721;47.402;8.550;2022-07-15T05:20:44;96353;;;22.69;40.87
2711;BME280;20721;47.402;8.550;2022-07-15T05:21:44;96350;;;22.76;40.60
2711;BME280;20721;47.402;8.550;2022-07-15T05:22:44;96353;;;22.82;40.70
2711;BME280;20721;47.402;8.550;2022-07-15T05:23:54;96354;;;22.90;40.56
2711;BME280;20721;47.402;8.550;2022-07-15T05:24:44;96357;;;22.98;40.54
2711;BME280;20721;47.402;8.550;2022-07-15T05:25:44;96355;;;23.05;40.55
2711;BME280;20721;47.402;8.550;2022-07-15T05:26:45;96361;;;23.11;40.24
2711;BME280;20721;47.402;8.550;2022-07-15T05:27:44;96361;;;23.14;39.90
2711;BME280;20721;47.402;8.550;2022-07-15T05:28:44;96360;;;23.20;39.88
2711;BME280;20721;47.402;8.550;2022-07-15T05:29:44;96362;;;23.28;39.71
2711;BME280;20721;47.402;8.550;2022-07-15T05:30:44;96363;;;23.25;39.35
2711;BME280;20721;47.402;8.550;2022-07-15T05:31:44;96364;;;23.24;39.32
2711;BME280;20721;47.402;8.550;2022-07-15T05:32:44;96362;;;23.22;39.44
2711;BME280;20721;47.402;8.550;2022-07-15T05:33:44;96361;;;23.24;39.39
2711;BME280;20721;47.402;8.550;2022-07-15T05:34:44;96365;;;23.31;39.41
2711;BME280;20721;47.402;8.550;2022-07-15T05:35:47;96364;;;23.37;39.37
2711;BME280;20721;47.402;8.550;2022-07-15T05:36:44;96367;;;23.45;39.35
2711;BME280;20721;47.402;8.550;2022-07-15T05:37:44;96365;;;23.44;39.27
2711;BME280;20721;47.402;8.550;2022-07-15T05:38:44;96365;;;23.46;39.22
2711;BME280;20721;47.402;8.550;2022-07-15T05:41:48;96370;;;23.55;39.23
2711;BME280;20721;47.402;8.550;2022-07-15T05:42:44;96366;;;23.61;39.44
2711;BME280;20721;47.402;8.550;2022-07-15T05:43:44;96368;;;23.56;39.10
2711;BME280;20721;47.402;8.550;2022-07-15T05:44:44;96369;;;23.55;39.24
2711;BME280;20721;47.402;8.550;2022-07-15T05:45:44;96366;;;23.56;39.04
2711;BME280;20721;47.402;8.550;2022-07-15T05:47:48;96371;;;23.58;38.97
2711;BME280;20721;47.402;8.550;2022-07-15T05:48:44;96374;;;23.60;39.12
2711;BME280;20721;47.402;8.550;2022-07-15T05:49:44;96372;;;23.51;39.16
2711;BME280;20721;47.402;8.550;2022-07-15T05:50:44;96369;;;23.44;39.21
2711;BME280;20721;47.402;8.550;2022-07-15T05:51:44;96374;;;23.42;39.37
2711;BME280;20721;47.402;8.550;2022-07-15T05:52:44;96372;;;23.40;39.52
2711;BME280;20721;47.402;8.550;2022-07-15T05:53:44;96372;;;23.45;39.71
2711;BME280;20721;47.402;8.550;2022-07-15T05:54:44;96368;;;23.50;39.51
2711;BME280;20721;47.402;8.550;2022-07-15T05:55:44;96371;;;23.60;39.34
2711;BME280;20721;47.402;8.550;2022-07-15T05:56:44;96368;;;23.63;39.27
2711;BME280;20721;47.402;8.550;2022-07-15T05:57:46;96369;;;23.71;39.40
2711;BME280;20721;47.402;8.550;2022-07-15T05:58:44;96367;;;23.77;39.20
2711;BME280;20721;47.402;8.550;2022-07-15T05:59:44;96367;;;23.75;38.95
2711;BME280;20721;47.402;8.550;2022-07-15T06:01:44;96373;;;23.78;38.93
2711;BME280;20721;47.402;8.550;2022-07-15T06:03:44;96374;;;23.76;38.97
2711;BME280;20721;47.402;8.550;2022-07-15T06:04:44;96370;;;23.79;39.11
2711;BME280;20721;47.402;8.550;2022-07-15T06:05:44;96372;;;23.85;38.98
2711;BME280;20721;47.402;8.550;2022-07-15T06:06:45;96371;;;23.82;38.85